Time;durP1;ratioP1;P1;durP2;ratioP2;P2;SDS_P1;SDS_P2;PMS_P1;PMS_P2;Temp;Humidity;BMP_temperature;BMP_pressure;BME280_temperature;BME280_humidity;BME280_pressure;Samples;Min_cycle;Max_cycle;Signal;HPM_P1;HPM_P2
2021/07/16 00:00:48;;;;;;;6.03;3.05;;;16.80;99.90;;;;;;5028345;28;20032;-72
2021/07/16 00:03:16;;;;;;;5.97;2.80;;;16.70;99.90;;;;;;5044686;28;20028;-72
2021/07/16 00:05:41;;;;;;;7.38;3.00;;;16.70;99.90;;;;;;5044878;28;20081;-72
2021/07/16 00:08:07;;;;;;;7.28;2.90;;;16.60;99.90;;;;;;5044015;28;20731;-72
2021/07/16 00:10:35;;;;;;;6.85;2.60;;;16.60;99.90;;;;;;5044964;28;20045;-73
2021/07/16 00:13:00;;;;;;;5.40;2.70;;;16.70;99.90;;;;;;5044540;28;20033;-72
2021/07/16 00:15:26;;;;;;;7.97;3.00;;;16.60;99.90;;;;;;5044461;28;20444;-72
2021/07/16 00:17:54;;;;;;;9.40;3.22;;;16.60;99.90;;;;;;5045246;28;20037;-72
2021/07/16 00:20:22;;;;;;;7.47;3.08;;;16.70;99.90;;;;;;5044932;28;20103;-72
2021/07/16 00:22:50;;;;;;;8.38;3.30;;;16.70;99.90;;;;;;5043065;28;20083;-72
2021/07/16 00:25:16;;;;;;;6.18;3.30;;;16.70;99.90;;;;;;5044127;28;20063;-72
2021/07/16 00:27:44;;;;;;;6.80;3.42;;;16.70;99.90;;;;;;5044549;28;20017;-72
2021/07/16 00:30:12;;;;;;;8.55;3.28;;;16.70;99.90;;;;;;5047722;28;20052;-72
2021/07/16 00:32:38;;;;;;;6.95;3.50;;;16.70;99.90;;;;;;5047809;28;20032;-72
2021/07/16 00:35:04;;;;;;;7.22;3.20;;;16.70;99.90;;;;;;5030746;28;20064;-72
2021/07/16 00:37:30;;;;;;;6.35;2.90;;;16.70;99.90;;;;;;5047174;28;20080;-72
2021/07/16 00:39:56;;;;;;;8.00;3.35;;;16.80;99.90;;;;;;5048928;28;20382;-72
2021/07/16 00:42:21;;;;;;;6.82;3.50;;;16.80;99.90;;;;;;5047716;28;20028;-72
2021/07/16 00:44:47;;;;;;;8.57;3.30;;;16.70;99.90;;;;;;5063918;28;20033;-73
2021/07/16 00:47:15;;;;;;;8.20;3.85;;;16.70;99.90;;;;;;5062882;28;20032;-72
2021/07/16 00:49:40;;;;;;;5.85;3.50;;;16.70;99.90;;;;;;5047554;28;20021;-72
2021/07/16 00:52:07;;;;;;;8.05;3.70;;;16.70;99.90;;;;;;5048254;28;20090;-72
2021/07/16 00:54:38;;;;;;;11.23;3.60;;;16.70;99.90;;;;;;5044781;28;20462;-72
2021/07/16 00:57:07;;;;;;;5.10;3.20;;;16.70;99.90;;;;;;5029489;28;20053;-72
2021/07/16 00:59:35;;;;;;;7.10;3.50;;;16.80;99.90;;;;;;5062383;28;20032;-72
2021/07/16 01:02:05;;;;;;;9.48;3.75;;;16.70;99.90;;;;;;5047284;28;20024;-72
2021/07/16 01:04:31;;;;;;;5.82;3.28;;;16.70;99.90;;;;;;5062879;28;20024;-72
2021/07/16 01:06:57;;;;;;;6.60;3.40;;;16.70;99.90;;;;;;5047375;28;20059;-72
2021/07/16 01:09:22;;;;;;;7.00;3.83;;;16.70;99.90;;;;;;5047817;28;20117;-72
2021/07/16 01:11:53;;;;;;;7.05;3.97;;;16.70;99.90;;;;;;5030068;28;20067;-72
2021/07/16 01:14:21;;;;;;;9.18;3.50;;;16.70;99.90;;;;;;5062515;28;20032;-72
2021/07/16 01:16:46;;;;;;;9.30;3.90;;;16.80;99.90;;;;;;5030480;28;20036;-72
2021/07/16 01:19:14;;;;;;;8.98;3.80;;;16.80;99.90;;;;;;5063895;28;20064;-72
2021/07/16 01:21:40;;;;;;;7.55;4.28;;;16.80;99.90;;;;;;5046808;28;20114;-72
2021/07/16 01:24:09;;;;;;;7.85;4.57;;;16.80;99.90;;;;;;5046443;28;20029;-72
2021/07/16 01:26:37;;;;;;;8.13;4.20;;;16.80;99.90;;;;;;5047539;28;20102;-72
2021/07/16 01:29:03;;;;;;;6.63;3.83;;;16.90;99.90;;;;;;5030699;28;20037;-72
2021/07/16 01:31:30;;;;;;;6.13;3.80;;;16.90;99.90;;;;;;5047935;28;20032;-72
2021/07/16 01:33:58;;;;;;;5.75;3.80;;;16.90;99.90;;;;;;5013305;28;20505;-72
2021/07/16 01:36:24;;;;;;;7.75;4.00;;;16.90;99.90;;;;;;5029662;28;20045;-72
2021/07/16 01:38:52;;;;;;;8.20;4.13;;;16.90;99.90;;;;;;5045619;28;20040;-72
2021/07/16 01:41:18;;;;;;;8.10;5.28;;;17.00;99.90;;;;;;5047649;28;20901;-72
2021/07/16 01:43:52;;;;;;;8.10;6.07;;;16.90;99.90;;;;;;5011971;28;10001376;-73
2021/07/16 01:46:20;;;;;;;13.38;7.53;;;16.90;99.90;;;;;;5046426;28;20228;-72
2021/07/16 01:48:46;;;;;;;16.65;10.15;;;16.90;99.90;;;;;;5047697;28;20033;-72
2021/07/16 01:51:11;;;;;;;10.82;8.07;;;16.80;99.90;;;;;;5014578;28;20389;-72
2021/07/16 01:53:37;;;;;;;14.10;8.20;;;16.90;99.90;;;;;;5046971;28;20443;-72
2021/07/16 01:56:05;;;;;;;13.02;7.63;;;17.00;99.90;;;;;;5045463;28;20118;-73
2021/07/16 01:58:35;;;;;;;15.00;9.43;;;16.90;99.90;;;;;;5046173;28;21943;-72
2021/07/16 02:01:04;;;;;;;11.63;8.45;;;16.90;99.90;;;;;;5028663;28;20033;-72
2021/07/16 02:03:29;;;;;;;11.63;8.02;;;16.90;99.90;;;;;;5061540;28;20021;-73
2021/07/16 02:05:55;;;;;;;13.18;8.38;;;17.00;99.90;;;;;;5046745;28;20099;-73
2021/07/16 02:08:24;;;;;;;13.23;8.50;;;17.00;99.90;;;;;;5046141;28;20032;-72
2021/07/16 02:10:52;;;;;;;11.10;7.38;;;17.00;99.90;;;;;;5061042;28;20044;-72
2021/07/16 02:13:18;;;;;;;9.35;6.60;;;17.00;99.90;;;;;;5028137;28;20136;-73
2021/07/16 02:15:47;;;;;;;11.02;6.57;;;17.00;99.90;;;;;;5013182;28;20029;-73
2021/07/16 02:18:13;;;;;;;8.48;5.57;;;17.00;99.90;;;;;;5043408;28;20033;-73
2021/07/16 02:20:40;;;;;;;8.45;5.60;;;17.00;99.90;;;;;;5061703;28;20040;-72
2021/07/16 02:23:11;;;;;;;8.32;5.47;;;17.00;99.90;;;;;;5045263;28;20585;-73
2021/07/16 02:25:38;;;;;;;9.13;5.30;;;17.00;99.90;;;;;;5029351;28;20029;-72
2021/07/16 02:28:08;;;;;;;8.35;5.30;;;17.00;99.90;;;;;;5003203;28;20025;-73
2021/07/16 02:30:34;;;;;;;7.35;4.68;;;17.00;99.90;;;;;;5044135;28;20025;-73
2021/07/16 02:33:04;;;;;;;7.43;4.80;;;17.00;99.90;;;;;;5026095;28;20404;-72
2021/07/16 02:35:30;;;;;;;10.38;4.70;;;17.10;99.90;;;;;;5028259;28;20553;-72
2021/07/16 02:37:59;;;;;;;8.05;4.45;;;17.10;99.90;;;;;;5061440;28;21871;-73
2021/07/16 02:40:27;;;;;;;8.45;4.40;;;17.00;99.90;;;;;;5025320;28;20082;-73
2021/07/16 02:42:53;;;;;;;7.38;4.35;;;17.10;99.90;;;;;;5028134;28;20036;-72
2021/07/16 02:45:23;;;;;;;6.43;4.38;;;17.10;99.90;;;;;;5028081;28;20143;-72
2021/07/16 02:47:51;;;;;;;8.90;4.53;;;17.10;99.90;;;;;;5027695;28;20063;-72
2021/07/16 02:50:22;;;;;;;9.60;4.90;;;17.10;99.90;;;;;;5010612;28;20040;-73
2021/07/16 02:52:50;;;;;;;9.30;4.38;;;17.10;99.90;;;;;;5060858;28;20497;-73
2021/07/16 02:55:19;;;;;;;9.68;4.18;;;17.10;99.90;;;;;;5045800;28;20123;-72
2021/07/16 02:57:47;;;;;;;32.20;5.05;;;17.20;99.90;;;;;;5045026;28;20072;-72
2021/07/16 03:00:15;;;;;;;8.25;4.35;;;17.20;99.90;;;;;;5061016;28;20098;-73
2021/07/16 03:02:41;;;;;;;9.15;4.28;;;17.20;99.90;;;;;;4989393;28;20470;-73
2021/07/16 03:05:16;;;;;;;8.45;4.40;;;17.20;99.90;;;;;;5059239;28;20036;-73
2021/07/16 03:07:47;;;;;;;12.98;4.63;;;17.20;99.90;;;;;;5045479;28;21909;-73
2021/07/16 03:10:21;;;;;;;6.45;4.38;;;17.20;99.90;;;;;;5017086;28;20029;-73
2021/07/16 03:12:46;;;;;;;7.38;4.53;;;17.20;99.90;;;;;;5060485;28;20519;-73
2021/07/16 03:15:14;;;;;;;6.88;4.82;;;17.20;99.90;;;;;;5045112;28;20033;-73
2021/07/16 03:17:40;;;;;;;8.95;5.90;;;17.20;99.90;;;;;;5045182;28;20036;-73
2021/07/16 03:20:10;;;;;;;9.30;6.70;;;17.10;99.90;;;;;;5027530;28;20040;-73
2021/07/16 03:22:36;;;;;;;8.70;7.43;;;17.20;99.90;;;;;;5044639;28;20032;-73
2021/07/16 03:25:03;;;;;;;10.88;8.02;;;17.20;99.90;;;;;;5045423;28;20052;-73
2021/07/16 03:27:31;;;;;;;10.88;8.32;;;17.20;99.90;;;;;;5045061;28;20057;-73
2021/07/16 03:29:57;;;;;;;12.32;8.80;;;17.20;99.90;;;;;;5044617;28;20028;-73
2021/07/16 03:32:25;;;;;;;12.25;9.75;;;17.20;99.90;;;;;;5046387;28;20040;-73
2021/07/16 03:34:50;;;;;;;13.85;10.60;;;17.30;99.90;;;;;;5044818;28;20041;-73
2021/07/16 03:37:16;;;;;;;12.93;10.40;;;17.30;99.90;;;;;;5027064;28;20037;-74
2021/07/16 03:39:43;;;;;;;12.88;9.90;;;17.30;99.90;;;;;;5044217;28;20040;-73
2021/07/16 03:42:08;;;;;;;15.15;10.93;;;17.30;99.90;;;;;;5042124;28;20040;-73
2021/07/16 03:44:34;;;;;;;16.02;10.25;;;17.30;99.90;;;;;;5045765;28;20037;-73
2021/07/16 03:46:59;;;;;;;16.05;11.93;;;17.40;99.90;;;;;;5009041;28;20051;-73
2021/07/16 03:49:29;;;;;;;15.57;11.38;;;17.40;99.90;;;;;;5045309;28;20060;-73
2021/07/16 03:51:55;;;;;;;12.88;10.75;;;17.40;99.90;;;;;;5027340;28;20033;-73
2021/07/16 03:54:23;;;;;;;13.50;10.73;;;17.50;99.90;;;;;;5026864;28;20486;-73
2021/07/16 03:56:51;;;;;;;13.35;11.35;;;17.50;99.90;;;;;;5028105;28;20063;-73
2021/07/16 03:59:16;;;;;;;17.80;12.32;;;17.50;99.90;;;;;;5045389;28;20029;-73
2021/07/16 04:01:43;;;;;;;17.17;12.43;;;17.50;99.90;;;;;;5045119;28;20048;-73
2021/07/16 04:04:09;;;;;;;25.20;13.82;;;17.50;99.90;;;;;;5047859;28;20040;-73
2021/07/16 04:06:34;;;;;;;16.95;12.82;;;17.60;99.90;;;;;;5048402;28;20362;-73
2021/07/16 04:09:10;;;;;;;15.70;12.98;;;17.60;99.90;;;;;;5030259;28;20469;-72
2021/07/16 04:11:36;;;;;;;20.25;14.27;;;17.60;99.90;;;;;;5049678;28;20067;-74
2021/07/16 04:14:03;;;;;;;22.60;14.63;;;17.70;99.90;;;;;;5031228;28;20056;-71
2021/07/16 04:16:29;;;;;;;19.45;13.98;;;17.70;99.90;;;;;;5031192;28;20126;-73
2021/07/16 04:18:59;;;;;;;16.90;13.10;;;17.70;99.90;;;;;;5047959;28;20370;-72
2021/07/16 04:21:27;;;;;;;20.38;15.68;;;17.60;99.90;;;;;;5030455;28;20515;-73
2021/07/16 04:23:53;;;;;;;19.73;13.80;;;17.70;99.90;;;;;;5048484;28;20718;-74
2021/07/16 04:26:18;;;;;;;19.95;15.40;;;17.70;99.90;;;;;;5048664;28;20062;-73
2021/07/16 04:28:44;;;;;;;18.85;14.55;;;17.80;99.90;;;;;;5048576;28;20029;-73
2021/07/16 04:31:12;;;;;;;25.92;15.50;;;17.80;99.90;;;;;;5048938;28;20025;-73
2021/07/16 04:33:39;;;;;;;21.55;15.68;;;17.80;99.90;;;;;;5029958;28;20118;-74
2021/07/16 04:36:07;;;;;;;21.15;15.35;;;17.90;99.90;;;;;;5048167;28;20115;-74
2021/07/16 04:38:35;;;;;;;20.35;15.43;;;17.80;99.90;;;;;;5029265;28;20028;-73
2021/07/16 04:41:01;;;;;;;20.73;15.85;;;17.90;99.90;;;;;;5048386;28;20025;-73
2021/07/16 04:43:26;;;;;;;17.98;14.43;;;17.90;99.90;;;;;;5030407;28;20043;-73
2021/07/16 04:45:52;;;;;;;20.15;15.32;;;17.90;99.90;;;;;;5029676;28;20085;-72
2021/07/16 04:48:18;;;;;;;17.77;14.93;;;18.00;99.90;;;;;;5048005;28;20128;-71
2021/07/16 04:50:43;;;;;;;20.10;15.05;;;18.00;99.90;;;;;;5048519;28;20028;-72
2021/07/16 04:53:11;;;;;;;16.60;13.98;;;18.00;99.90;;;;;;5047035;28;20044;-71
2021/07/16 04:55:37;;;;;;;21.00;14.63;;;18.00;99.90;;;;;;5047750;28;20043;-72
2021/07/16 04:58:03;;;;;;;21.35;14.23;;;18.10;99.90;;;;;;5047902;28;20041;-72
2021/07/16 05:00:31;;;;;;;17.50;14.15;;;18.10;99.90;;;;;;5047891;28;20506;-73
2021/07/16 05:03:01;;;;;;;22.58;15.80;;;18.10;99.90;;;;;;5048036;28;20029;-73
2021/07/16 05:05:26;;;;;;;23.85;16.80;;;18.10;99.90;;;;;;5029756;28;20044;-73
2021/07/16 05:07:52;;;;;;;23.77;16.45;;;18.10;99.90;;;;;;5047376;28;20378;-74
2021/07/16 05:10:18;;;;;;;23.40;16.95;;;18.10;99.90;;;;;;5047618;28;20461;-73
2021/07/16 05:12:43;;;;;;;25.67;18.10;;;18.20;99.90;;;;;;5047149;28;20597;-73
2021/07/16 05:15:12;;;;;;;25.08;18.50;;;18.20;99.90;;;;;;5046805;28;20037;-72
2021/07/16 05:17:37;;;;;;;29.08;18.90;;;18.20;99.90;;;;;;5037624;28;20044;-74
2021/07/16 05:20:04;;;;;;;24.45;18.20;;;18.30;99.90;;;;;;5033966;28;20028;-73
2021/07/16 05:22:32;;;;;;;27.23;19.52;;;18.30;99.90;;;;;;5028880;28;20115;-73
2021/07/16 05:25:00;;;;;;;25.63;18.67;;;18.30;99.90;;;;;;5027309;28;20401;-74
2021/07/16 05:27:28;;;;;;;29.77;18.63;;;18.40;99.90;;;;;;5047284;28;20512;-73
2021/07/16 05:29:56;;;;;;;28.30;19.08;;;18.40;99.90;;;;;;5047091;28;20039;-73
2021/07/16 05:32:24;;;;;;;29.33;19.48;;;18.40;99.90;;;;;;5046590;28;20029;-72
2021/07/16 05:34:49;;;;;;;27.80;20.05;;;18.40;99.90;;;;;;5047534;28;20050;-73
2021/07/16 05:37:19;;;;;;;27.85;20.15;;;18.40;99.90;;;;;;5046731;28;20032;-72
2021/07/16 05:39:45;;;;;;;36.53;20.75;;;18.40;99.90;;;;;;5047199;28;20474;-72
2021/07/16 05:42:13;;;;;;;31.35;20.27;;;18.50;99.90;;;;;;5047600;28;20037;-72
2021/07/16 05:44:39;;;;;;;29.63;20.48;;;18.50;99.90;;;;;;5047811;28;20037;-72
2021/07/16 05:47:05;;;;;;;30.88;19.63;;;18.50;99.90;;;;;;5046607;28;20033;-72
2021/07/16 05:49:35;;;;;;;31.83;21.10;;;18.50;99.90;;;;;;5028153;28;20059;-72
2021/07/16 05:52:06;;;;;;;29.45;20.02;;;18.60;99.90;;;;;;5045749;28;20028;-71
2021/07/16 05:54:34;;;;;;;32.78;20.67;;;18.60;99.90;;;;;;5030570;28;20054;-72
2021/07/16 05:56:59;;;;;;;24.20;18.95;;;18.60;99.90;;;;;;5046975;28;20118;-70
2021/07/16 05:59:25;;;;;;;25.67;19.05;;;18.60;99.90;;;;;;5045733;28;20040;-72
2021/07/16 06:01:53;;;;;;;27.70;19.67;;;18.60;99.90;;;;;;5062761;28;20037;-72
2021/07/16 06:04:19;;;;;;;26.35;19.48;;;18.60;99.90;;;;;;5045631;28;20458;-72
2021/07/16 06:06:48;;;;;;;25.88;19.58;;;18.60;99.90;;;;;;5046419;28;20044;-69
2021/07/16 06:09:14;;;;;;;34.25;27.02;;;18.50;99.90;;;;;;5046187;28;20663;-70
2021/07/16 06:11:42;;;;;;;28.10;19.30;;;18.60;99.90;;;;;;5047005;28;20028;-72
2021/07/16 06:14:08;;;;;;;25.70;19.23;;;18.70;99.90;;;;;;5014065;28;20481;-72
2021/07/16 06:16:33;;;;;;;25.75;18.65;;;18.60;99.90;;;;;;5045589;28;20044;-72
2021/07/16 06:19:02;;;;;;;23.70;18.05;;;18.70;99.90;;;;;;5046293;28;20071;-72
2021/07/16 06:21:30;;;;;;;23.15;17.38;;;18.70;99.90;;;;;;5027524;28;20094;-71
2021/07/16 06:23:55;;;;;;;24.88;17.52;;;18.80;99.90;;;;;;5028660;28;20025;-70
2021/07/16 06:26:24;;;;;;;27.30;18.65;;;18.80;99.90;;;;;;5045090;28;20071;-71
2021/07/16 06:28:52;;;;;;;27.73;18.67;;;18.80;99.90;;;;;;5027593;28;20106;-71
2021/07/16 06:31:20;;;;;;;25.75;17.02;;;18.90;99.90;;;;;;5026405;28;20025;-72
2021/07/16 06:33:46;;;;;;;21.27;15.90;;;18.90;99.90;;;;;;5026902;28;20450;-73
2021/07/16 06:36:12;;;;;;;22.00;15.55;;;18.90;99.90;;;;;;5027435;28;20425;-71
2021/07/16 06:38:38;;;;;;;19.92;15.57;;;18.90;99.90;;;;;;5045625;28;20025;-71
2021/07/16 06:41:06;;;;;;;22.38;17.02;;;18.90;99.90;;;;;;5028427;28;20726;-71
2021/07/16 06:43:31;;;;;;;20.67;16.58;;;18.90;99.90;;;;;;5027595;28;20480;-71
2021/07/16 06:46:01;;;;;;;19.75;15.45;;;19.00;99.90;;;;;;5045146;28;20033;-71
2021/07/16 06:48:27;;;;;;;37.70;17.17;;;19.00;99.90;;;;;;5046380;28;20024;-71
2021/07/16 06:50:53;;;;;;;22.95;16.48;;;19.00;99.90;;;;;;5045188;28;20074;-71
2021/07/16 06:53:21;;;;;;;20.90;16.33;;;19.00;99.90;;;;;;5046434;28;20232;-71
2021/07/16 06:55:47;;;;;;;19.83;16.75;;;19.00;99.90;;;;;;5060598;28;20045;-72
2021/07/16 06:58:12;;;;;;;22.33;16.75;;;19.00;99.90;;;;;;5027957;28;21925;-72
2021/07/16 07:00:38;;;;;;;24.02;16.70;;;19.00;99.90;;;;;;5026670;28;20132;-71
2021/07/16 07:03:06;;;;;;;23.80;16.30;;;19.00;99.90;;;;;;5027228;28;20043;-72
2021/07/16 07:05:32;;;;;;;25.48;18.45;;;19.00;99.90;;;;;;4997804;28;20093;-72
2021/07/16 07:08:05;;;;;;;22.92;17.48;;;19.00;99.90;;;;;;5027694;28;20029;-71
2021/07/16 07:10:34;;;;;;;24.27;17.80;;;19.00;99.90;;;;;;5028334;28;20060;-71
2021/07/16 07:13:06;;;;;;;20.50;16.50;;;19.00;99.90;;;;;;5011009;28;20120;-72
2021/07/16 07:15:32;;;;;;;;;;;19.00;99.90;;;;;;5046674;28;20110;-72
2021/07/16 07:17:57;;;;;;;25.08;17.08;;;19.00;99.90;;;;;;5027743;28;19999;-72
2021/07/16 07:20:25;;;;;;;26.13;18.83;;;19.00;99.90;;;;;;5027377;28;20071;-72
2021/07/16 07:22:51;;;;;;;24.80;17.42;;;19.00;99.90;;;;;;5045859;28;20033;-72
2021/07/16 07:25:19;;;;;;;22.05;17.58;;;19.20;99.90;;;;;;5027029;28;20093;-72
2021/07/16 07:27:44;;;;;;;22.60;17.40;;;19.20;99.90;;;;;;5044604;28;20033;-71
2021/07/16 07:30:10;;;;;;;20.95;17.70;;;19.20;99.90;;;;;;5045487;28;20036;-73
2021/07/16 07:32:38;;;;;;;23.65;17.70;;;19.30;99.90;;;;;;5020055;28;20037;-72
2021/07/16 07:35:07;;;;;;;24.85;17.13;;;19.30;99.90;;;;;;5028051;28;20638;-72
2021/07/16 07:37:33;;;;;;;22.00;16.73;;;19.30;99.90;;;;;;5046080;28;20501;-72
2021/07/16 07:40:00;;;;;;;25.15;17.48;;;19.30;99.90;;;;;;5016390;28;20036;-71
2021/07/16 07:42:26;;;;;;;22.00;16.80;;;19.30;99.90;;;;;;5031518;28;20028;-71
2021/07/16 07:44:55;;;;;;;20.77;17.50;;;19.30;99.90;;;;;;5049053;28;20048;-71
2021/07/16 07:47:23;;;;;;;22.48;17.35;;;19.40;99.90;;;;;;5047770;28;20044;-72
2021/07/16 07:49:49;;;;;;;21.85;17.88;;;19.40;99.90;;;;;;5032340;28;20032;-71
2021/07/16 07:52:15;;;;;;;21.45;17.13;;;19.40;99.90;;;;;;5030844;28;21847;-71
2021/07/16 07:54:42;;;;;;;23.48;17.60;;;19.50;99.90;;;;;;5031719;28;20103;-71
2021/07/16 07:57:08;;;;;;;22.25;16.80;;;19.60;99.90;;;;;;5035042;28;20476;-70
2021/07/16 07:59:33;;;;;;;20.10;17.13;;;19.50;99.90;;;;;;5048105;28;20045;-71
2021/07/16 08:01:59;;;;;;;21.88;17.02;;;19.60;99.90;;;;;;5065086;28;20073;-71
2021/07/16 08:04:25;;;;;;;22.35;16.38;;;19.60;99.90;;;;;;5048317;28;20041;-71
2021/07/16 08:06:52;;;;;;;21.85;17.25;;;19.70;99.90;;;;;;5048265;28;20096;-71
2021/07/16 08:09:18;;;;;;;19.73;16.00;;;19.80;99.90;;;;;;5031817;28;20056;-71
2021/07/16 08:11:46;;;;;;;20.48;15.48;;;19.90;99.90;;;;;;5048189;28;20124;-71
2021/07/16 08:14:12;;;;;;;19.90;16.02;;;19.90;99.90;;;;;;5064322;28;20120;-71
2021/07/16 08:16:37;;;;;;;19.55;16.02;;;20.00;99.90;;;;;;5048647;28;20654;-71
2021/07/16 08:19:03;;;;;;;19.25;15.93;;;20.10;99.90;;;;;;5049145;28;20033;-71
2021/07/16 08:21:29;;;;;;;19.83;15.68;;;20.20;99.90;;;;;;5049032;28;20048;-71
2021/07/16 08:23:54;;;;;;;17.35;15.15;;;20.20;99.90;;;;;;5049583;28;21948;-72
2021/07/16 08:26:22;;;;;;;24.35;17.02;;;20.30;99.90;;;;;;5013363;28;20025;-71
2021/07/16 08:28:48;;;;;;;21.30;16.95;;;20.30;99.90;;;;;;5048589;28;20044;-71
2021/07/16 08:31:13;;;;;;;19.45;15.50;;;20.40;99.90;;;;;;5030937;28;20029;-72
2021/07/16 08:33:39;;;;;;;18.55;15.35;;;20.40;99.90;;;;;;5030117;28;20032;-72
2021/07/16 08:36:07;;;;;;;19.77;15.60;;;20.50;99.90;;;;;;5048650;28;20040;-71
2021/07/16 08:38:33;;;;;;;19.10;15.38;;;20.50;99.90;;;;;;5048393;28;20036;-71
2021/07/16 08:40:58;;;;;;;21.90;17.65;;;20.60;99.90;;;;;;5048263;28;20044;-72
2021/07/16 08:43:27;;;;;;;25.15;18.08;;;20.60;99.90;;;;;;5030343;28;20164;-73
2021/07/16 08:45:55;;;;;;;22.50;17.40;;;20.60;99.90;;;;;;5047146;28;20044;-72
2021/07/16 08:48:20;;;;;;;22.65;18.10;;;20.70;99.90;;;;;;5048208;28;20453;-72
2021/07/16 08:50:46;;;;;;;23.90;17.23;;;20.60;99.90;;;;;;5046794;28;20115;-72
2021/07/16 08:53:12;;;;;;;20.30;17.10;;;20.60;99.90;;;;;;5029470;28;20029;-72
2021/07/16 08:55:42;;;;;;;19.95;15.35;;;20.70;99.90;;;;;;5048596;28;20039;-72
2021/07/16 08:58:11;;;;;;;18.75;15.20;;;20.80;99.90;;;;;;5005459;28;20084;-72
2021/07/16 09:00:37;;;;;;;20.40;16.00;;;20.90;99.90;;;;;;5046976;28;20093;-72
2021/07/16 09:03:05;;;;;;;16.23;14.05;;;21.10;99.90;;;;;;5048007;28;20347;-72
2021/07/16 09:05:32;;;;;;;20.33;13.48;;;21.20;99.90;;;;;;5047368;28;20150;-72
2021/07/16 09:07:59;;;;;;;15.88;13.70;;;21.30;99.90;;;;;;5046528;28;20027;-72
2021/07/16 09:10:24;;;;;;;15.98;13.05;;;21.40;99.90;;;;;;5048941;28;20083;-73
2021/07/16 09:12:59;;;;;;;15.18;13.02;;;21.50;99.90;;;;;;5047284;28;20549;-72
2021/07/16 09:15:25;;;;;;;17.25;13.60;;;21.60;99.90;;;;;;5012761;28;20560;-72
2021/07/16 09:18:07;;;;;;;15.63;12.85;;;21.60;99.90;;;;;;5029638;28;20043;-72
2021/07/16 09:20:33;;;;;;;14.73;12.45;;;21.70;99.90;;;;;;5015648;28;20037;-72
2021/07/16 09:23:13;;;;;;;16.40;12.30;;;21.80;99.90;;;;;;5048104;28;20370;-72
2021/07/16 09:25:39;;;;;;;16.13;12.90;;;21.80;99.90;;;;;;5062123;28;20033;-72
2021/07/16 09:28:07;;;;;;;16.58;11.82;;;21.80;99.90;;;;;;5046715;28;20449;-72
2021/07/16 09:30:33;;;;;;;15.00;12.27;;;21.90;99.90;;;;;;5047428;28;20151;-72
2021/07/16 09:33:05;;;;;;;15.65;12.77;;;21.90;99.90;;;;;;5047846;28;20025;-72
2021/07/16 09:35:33;;;;;;;16.58;13.32;;;22.00;99.90;;;;;;5029737;28;20040;-72
2021/07/16 09:38:03;;;;;;;14.77;12.82;;;22.20;99.90;;;;;;5033426;28;20064;-72
2021/07/16 09:40:34;;;;;;;13.93;12.25;;;22.10;99.90;;;;;;5030639;28;20043;-72
2021/07/16 09:43:04;;;;;;;14.40;12.90;;;22.20;99.90;;;;;;5063336;28;20037;-70
2021/07/16 09:45:30;;;;;;;15.40;12.77;;;22.40;99.90;;;;;;4698831;28;10001321;-69
2021/07/16 09:47:59;;;;;;;14.93;11.70;;;22.40;99.90;;;;;;5045848;28;20487;-69
2021/07/16 09:50:27;;;;;;;15.20;11.88;;;22.40;99.90;;;;;;5028837;28;20028;-69
2021/07/16 09:53:29;;;;;;;15.98;12.02;;;22.40;99.90;;;;;;5045261;28;20083;-69
2021/07/16 09:56:33;;;;;;;14.70;11.68;;;22.40;99.90;;;;;;5044100;28;20540;-68
2021/07/16 09:59:07;;;;;;;14.60;11.20;;;22.30;99.90;;;;;;5032010;28;20131;-69
2021/07/16 10:01:36;;;;;;;14.52;11.60;;;22.20;99.90;;;;;;5029657;28;20070;-69
2021/07/16 10:04:02;;;;;;;13.60;10.75;;;22.30;99.90;;;;;;5027686;28;20037;-68
2021/07/16 10:06:29;;;;;;;14.93;10.85;;;22.20;99.90;;;;;;5046841;28;20719;-69
2021/07/16 10:08:55;;;;;;;12.48;10.32;;;22.20;99.90;;;;;;5028339;28;20083;-69
2021/07/16 10:11:24;;;;;;;14.13;11.18;;;22.10;99.90;;;;;;5046253;28;20110;-69
2021/07/16 10:13:53;;;;;;;13.38;11.18;;;22.00;99.90;;;;;;5045359;28;20032;-69
2021/07/16 10:16:19;;;;;;;13.55;10.98;;;22.10;99.90;;;;;;5044142;28;20025;-69
2021/07/16 10:18:44;;;;;;;13.10;10.77;;;22.10;99.90;;;;;;5045506;28;20077;-68
2021/07/16 10:21:12;;;;;;;12.13;10.80;;;22.10;99.90;;;;;;5045525;28;20043;-69
2021/07/16 10:23:40;;;;;;;14.13;10.52;;;22.10;99.90;;;;;;5045959;28;20497;-69
2021/07/16 10:26:10;;;;;;;13.60;10.50;;;22.10;99.90;;;;;;5044264;28;20025;-68
2021/07/16 10:28:41;;;;;;;11.82;10.13;;;22.10;99.90;;;;;;5028353;28;20378;-68
2021/07/16 10:31:29;;;;;;;12.07;10.43;;;22.00;99.90;;;;;;5012308;28;20031;-69
2021/07/16 10:34:10;;;;;;;11.23;9.70;;;22.00;99.90;;;;;;5044785;28;20530;-69
2021/07/16 10:36:44;;;;;;;11.45;9.55;;;22.10;99.90;;;;;;5045549;28;20024;-69
2021/07/16 10:39:20;;;;;;;11.10;9.55;;;22.10;99.90;;;;;;5045652;28;20037;-68
2021/07/16 10:41:46;;;;;;;13.60;10.27;;;22.10;99.90;;;;;;5061415;28;20032;-68
2021/07/16 10:44:12;;;;;;;13.45;9.82;;;22.10;99.90;;;;;;5060474;28;20032;-67
2021/07/16 10:46:44;;;;;;;12.50;9.73;;;22.00;99.90;;;;;;5044331;28;20039;-68
2021/07/16 10:49:12;;;;;;;11.63;10.10;;;22.00;99.90;;;;;;5045039;28;20024;-68
2021/07/16 10:51:40;;;;;;;10.15;8.90;;;22.10;99.90;;;;;;5046075;28;20024;-68
2021/07/16 10:54:10;;;;;;;10.98;8.10;;;22.20;99.90;;;;;;5028396;28;20040;-68
2021/07/16 10:56:45;;;;;;;11.38;8.90;;;22.20;99.90;;;;;;5045837;28;20021;-68
2021/07/16 10:59:45;;;;;;;10.85;9.32;;;22.30;99.90;;;;;;5045865;28;20036;-68
2021/07/16 11:02:49;;;;;;;12.57;9.80;;;22.20;99.90;;;;;;5061184;28;20032;-69
2021/07/16 11:05:34;;;;;;;11.75;9.90;;;22.10;99.90;;;;;;5029644;28;20029;-68
2021/07/16 11:08:01;;;;;;;10.63;9.25;;;22.10;99.90;;;;;;5044636;28;20043;-70
2021/07/16 11:10:51;;;;;;;11.52;9.23;;;22.10;99.90;;;;;;5061394;28;20615;-69
2021/07/16 11:13:47;;;;;;;12.50;10.60;;;22.10;99.90;;;;;;5060716;28;20120;-68
2021/07/16 11:16:16;;;;;;;11.90;9.77;;;22.20;99.90;;;;;;5045419;28;20412;-69
2021/07/16 11:19:11;;;;;;;11.18;9.13;;;22.40;99.90;;;;;;5045770;28;20025;-69
2021/07/16 11:21:40;;;;;;;12.00;9.00;;;22.70;99.90;;;;;;5019595;28;20503;-68
2021/07/16 11:24:15;;;;;;;10.75;8.75;;;22.80;99.90;;;;;;5044460;28;20110;-68
2021/07/16 11:27:00;;;;;;;10.88;8.82;;;22.90;99.90;;;;;;5045139;28;20408;-69
2021/07/16 11:29:28;;;;;;;11.07;9.27;;;22.90;99.90;;;;;;5045138;28;20086;-68
2021/07/16 11:32:06;;;;;;;10.80;9.45;;;22.80;99.90;;;;;;5003321;28;20052;-68
2021/07/16 11:34:35;;;;;;;13.07;9.00;;;23.00;99.90;;;;;;5043840;28;20083;-68
2021/07/16 11:37:00;;;;;;;10.93;8.88;;;23.00;99.90;;;;;;5028114;28;20068;-68
2021/07/16 11:39:29;;;;;;;11.07;9.32;;;23.00;99.90;;;;;;5027509;28;20157;-68
2021/07/16 11:41:57;;;;;;;11.25;9.20;;;22.90;99.90;;;;;;5059784;28;20599;-68
2021/07/16 11:44:28;;;;;;;10.82;9.52;;;22.90;99.90;;;;;;5046088;28;20059;-68
2021/07/16 11:46:57;;;;;;;11.65;9.68;;;22.80;99.90;;;;;;5043053;28;20083;-68
2021/07/16 11:49:27;;;;;;;12.77;10.07;;;22.70;99.90;;;;;;5060009;28;20024;-68
2021/07/16 11:52:04;;;;;;;11.95;9.60;;;22.70;99.90;;;;;;5045459;28;20029;-68
2021/07/16 11:54:30;;;;;;;11.48;9.55;;;22.60;99.90;;;;;;5044416;28;20033;-68
2021/07/16 11:56:59;;;;;;;10.65;9.48;;;22.50;99.90;;;;;;5042338;28;20033;-68
2021/07/16 11:59:26;;;;;;;11.82;9.85;;;22.50;99.90;;;;;;5044687;28;20029;-68
2021/07/16 12:02:13;;;;;;;10.77;9.57;;;22.30;99.90;;;;;;5028036;28;20040;-68
2021/07/16 12:04:40;;;;;;;11.32;9.18;;;22.40;99.90;;;;;;5044727;28;20456;-68
2021/07/16 12:07:06;;;;;;;10.25;8.75;;;22.30;99.90;;;;;;5024746;28;20025;-68
2021/07/16 12:09:35;;;;;;;10.68;9.30;;;22.40;99.90;;;;;;5044201;28;20033;-68
2021/07/16 12:12:09;;;;;;;12.05;9.07;;;22.50;99.90;;;;;;5046162;28;20044;-68
2021/07/16 12:14:49;;;;;;;10.40;9.30;;;22.70;99.90;;;;;;5028270;28;20056;-67
2021/07/16 12:17:16;;;;;;;11.70;8.70;;;22.70;99.90;;;;;;5060779;28;20063;-67
2021/07/16 12:19:44;;;;;;;10.02;8.40;;;22.80;99.90;;;;;;5025277;28;20371;-67
2021/07/16 12:22:14;;;;;;;9.30;8.20;;;23.00;99.90;;;;;;5027971;28;20025;-67
2021/07/16 12:24:43;;;;;;;9.63;8.07;;;23.10;99.90;;;;;;5030195;28;20617;-68
2021/07/16 12:27:13;;;;;;;8.85;7.22;;;23.20;99.90;;;;;;5032756;28;20060;-68
2021/07/16 12:29:39;;;;;;;9.73;7.83;;;23.20;99.90;;;;;;5048440;28;20039;-68
2021/07/16 12:32:05;;;;;;;9.38;7.70;;;23.30;99.90;;;;;;5048083;28;20063;-67
2021/07/16 12:34:31;;;;;;;10.13;7.63;;;23.40;99.90;;;;;;5064069;28;20087;-68
2021/07/16 12:37:10;;;;;;;8.60;7.60;;;23.50;99.90;;;;;;5064326;28;20139;-68
2021/07/16 12:39:36;;;;;;;9.75;7.40;;;23.50;99.90;;;;;;5013844;28;20067;-67